Time;durP1;ratioP1;P1;durP2;ratioP2;P2;SDS_P1;SDS_P2;PMS_P1;PMS_P2;Temp;Humidity;BMP_temperature;BMP_pressure;BME280_temperature;BME280_humidity;BME280_pressure;Samples;Min_cycle;Max_cycle;Signal;HPM_P1;HPM_P2
2021/11/16 00:00:05;;;;;;;7.78;5.82;;;18.20;67.50;;;;;;5045718;28;20494;-78
2021/11/16 00:02:31;;;;;;;7.05;5.30;;;18.20;67.50;;;;;;5027965;28;20047;-78
2021/11/16 00:04:57;;;;;;;8.90;6.45;;;18.20;67.50;;;;;;5027733;28;20029;-79
2021/11/16 00:07:23;;;;;;;8.90;6.07;;;18.20;67.50;;;;;;5043899;28;20025;-78
2021/11/16 00:09:49;;;;;;;9.95;6.20;;;18.10;67.50;;;;;;5047428;28;20087;-78
2021/11/16 00:12:14;;;;;;;8.02;5.60;;;18.10;67.40;;;;;;5042570;28;20481;-78
2021/11/16 00:14:41;;;;;;;7.65;5.80;;;18.10;67.40;;;;;;5037784;28;20029;-78
2021/11/16 00:17:07;;;;;;;8.45;5.32;;;18.10;67.50;;;;;;5047321;28;20025;-79
2021/11/16 00:19:33;;;;;;;8.40;6.05;;;18.10;67.50;;;;;;5047123;28;20033;-77
2021/11/16 00:21:59;;;;;;;7.20;5.22;;;18.10;67.50;;;;;;5041040;28;20400;-78
2021/11/16 00:24:37;;;;;;;7.18;5.45;;;18.00;67.50;;;;;;5027186;28;20032;-78
2021/11/16 00:27:07;;;;;;;8.30;6.18;;;18.00;67.40;;;;;;5043220;28;20112;-78
2021/11/16 00:29:34;;;;;;;8.90;6.13;;;18.00;67.50;;;;;;5049088;28;20105;-78
2021/11/16 00:32:00;;;;;;;8.40;5.28;;;18.00;67.40;;;;;;5045943;28;20082;-78
2021/11/16 00:34:26;;;;;;;7.88;5.63;;;18.00;67.40;;;;;;5030646;28;20521;-79
2021/11/16 00:36:52;;;;;;;7.47;5.50;;;18.00;67.40;;;;;;5041778;28;20025;-77
2021/11/16 00:39:19;;;;;;;8.05;5.75;;;18.00;67.40;;;;;;5043691;28;20026;-78
2021/11/16 00:41:45;;;;;;;7.68;5.30;;;17.90;67.40;;;;;;5038281;28;20039;-78
2021/11/16 00:44:10;;;;;;;7.30;5.70;;;17.90;67.40;;;;;;5040430;28;20029;-78
2021/11/16 00:46:36;;;;;;;7.13;5.22;;;17.90;67.40;;;;;;5048532;28;20033;-77
2021/11/16 00:49:03;;;;;;;7.72;5.22;;;17.90;67.40;;;;;;5050568;28;20033;-78
2021/11/16 00:51:29;;;;;;;7.97;5.55;;;17.90;67.40;;;;;;5040137;28;20034;-79
2021/11/16 00:53:54;;;;;;;7.00;5.07;;;17.80;67.40;;;;;;5030240;28;20075;-76
2021/11/16 00:56:20;;;;;;;8.60;5.10;;;17.80;67.40;;;;;;5029666;28;20439;-77
2021/11/16 00:58:46;;;;;;;7.60;5.28;;;17.80;67.40;;;;;;5029407;28;20033;-76
2021/11/16 01:01:11;;;;;;;7.82;5.63;;;17.80;67.40;;;;;;5031302;28;20041;-76
2021/11/16 01:03:37;;;;;;;7.55;5.93;;;17.80;67.40;;;;;;5030032;28;20030;-79
2021/11/16 01:06:03;;;;;;;7.70;5.55;;;17.80;67.30;;;;;;5035575;28;20481;-78
2021/11/16 01:08:30;;;;;;;7.78;5.55;;;17.80;67.30;;;;;;5049913;28;20049;-79
2021/11/16 01:10:56;;;;;;;7.45;5.00;;;17.80;67.30;;;;;;5049771;28;20388;-79
2021/11/16 01:13:24;;;;;;;7.05;5.07;;;17.80;67.30;;;;;;5049282;28;20068;-78
2021/11/16 01:15:51;;;;;;;7.43;4.75;;;17.70;67.30;;;;;;5042562;28;20026;-78
2021/11/16 01:18:19;;;;;;;7.97;5.25;;;17.70;67.30;;;;;;5048527;28;20485;-78
2021/11/16 01:20:46;;;;;;;6.68;5.32;;;17.70;67.30;;;;;;5048636;28;20421;-77
2021/11/16 01:23:13;;;;;;;6.10;4.78;;;17.70;67.30;;;;;;5030924;28;20025;-78
2021/11/16 01:25:44;;;;;;;6.72;5.13;;;17.70;67.30;;;;;;5029910;28;20512;-78
2021/11/16 01:28:11;;;;;;;6.45;5.10;;;17.70;67.40;;;;;;5049683;28;20491;-78
2021/11/16 01:30:44;;;;;;;7.72;5.88;;;17.70;67.40;;;;;;5049760;28;20060;-78
2021/11/16 01:33:15;;;;;;;7.45;4.80;;;17.70;67.30;;;;;;5048918;28;20025;-78
2021/11/16 01:35:42;;;;;;;8.50;5.55;;;17.70;67.20;;;;;;5047100;28;20017;-78
2021/11/16 01:38:10;;;;;;;6.57;5.05;;;17.70;67.20;;;;;;5027362;28;20124;-79
2021/11/16 01:40:38;;;;;;;6.78;5.15;;;17.70;67.20;;;;;;5028342;28;20046;-79
2021/11/16 01:43:07;;;;;;;8.27;5.47;;;17.60;67.20;;;;;;5042120;28;20029;-79
2021/11/16 01:45:33;;;;;;;6.95;5.05;;;17.70;67.20;;;;;;5047789;28;20074;-79
2021/11/16 01:47:59;;;;;;;6.82;5.28;;;17.70;67.10;;;;;;5038134;28;20038;-78
2021/11/16 01:50:25;;;;;;;6.35;4.68;;;17.70;67.10;;;;;;5029380;28;20018;-78
2021/11/16 01:52:52;;;;;;;6.68;5.10;;;17.60;67.00;;;;;;5048033;28;20025;-79
2021/11/16 01:55:20;;;;;;;7.40;5.07;;;17.60;67.00;;;;;;5048376;28;20048;-77
2021/11/16 01:57:46;;;;;;;8.98;5.45;;;17.70;67.00;;;;;;5030665;28;20022;-78
2021/11/16 02:00:17;;;;;;;7.05;5.00;;;17.70;67.00;;;;;;5045560;28;20037;-78
2021/11/16 02:02:42;;;;;;;7.55;5.20;;;17.70;66.90;;;;;;5029275;28;20025;-78
2021/11/16 02:05:09;;;;;;;5.97;4.55;;;17.70;66.80;;;;;;5028997;28;20553;-77
2021/11/16 02:07:35;;;;;;;7.20;5.13;;;17.70;66.80;;;;;;5045983;28;20354;-77
2021/11/16 02:10:01;;;;;;;6.07;4.47;;;17.70;66.70;;;;;;5043920;28;20109;-78
2021/11/16 02:12:27;;;;;;;7.10;4.80;;;17.70;66.70;;;;;;5029141;28;20067;-78
2021/11/16 02:14:53;;;;;;;6.78;5.22;;;17.70;66.70;;;;;;5044851;28;20509;-78
2021/11/16 02:17:18;;;;;;;6.82;4.80;;;17.70;66.70;;;;;;5049157;28;20036;-78
2021/11/16 02:19:45;;;;;;;6.32;4.82;;;17.70;66.70;;;;;;5047852;28;20017;-78
2021/11/16 02:22:12;;;;;;;6.97;4.68;;;17.70;66.60;;;;;;5043815;28;20485;-78
2021/11/16 02:24:38;;;;;;;7.65;4.88;;;17.70;67.30;;;;;;5034627;28;20041;-76
2021/11/16 02:27:04;;;;;;;7.03;5.38;;;17.70;66.50;;;;;;5029049;28;20486;-78
2021/11/16 02:29:30;;;;;;;5.47;3.88;;;17.70;66.50;;;;;;5028911;28;20046;-77
2021/11/16 02:31:56;;;;;;;7.78;5.22;;;17.70;66.50;;;;;;5041073;28;20021;-77
2021/11/16 02:34:24;;;;;;;6.90;4.97;;;17.70;66.40;;;;;;5036656;28;20039;-78
2021/11/16 02:36:50;;;;;;;7.65;5.35;;;17.70;66.40;;;;;;5040261;28;20025;-77
2021/11/16 02:39:16;;;;;;;6.35;4.88;;;17.70;66.40;;;;;;5049001;28;20512;-77
2021/11/16 02:41:49;;;;;;;6.80;4.40;;;17.70;66.40;;;;;;5039604;28;20037;-76
2021/11/16 02:44:17;;;;;;;5.88;4.20;;;17.70;66.30;;;;;;5036836;28;20085;-76
2021/11/16 02:46:44;;;;;;;5.82;4.72;;;17.70;66.30;;;;;;5048329;28;20112;-76
2021/11/16 02:49:10;;;;;;;7.30;5.03;;;17.70;66.30;;;;;;5029574;28;20427;-75
2021/11/16 02:51:36;;;;;;;7.70;4.88;;;17.70;66.30;;;;;;5028167;28;20081;-75
2021/11/16 02:54:12;;;;;;;6.47;5.00;;;17.70;66.30;;;;;;5032763;28;20405;-78
2021/11/16 02:56:39;;;;;;;6.57;4.75;;;17.70;67.00;;;;;;5028190;28;20025;-77
2021/11/16 02:59:04;;;;;;;6.82;4.60;;;17.70;66.20;;;;;;5027082;28;20512;-77
2021/11/16 03:01:30;;;;;;;6.15;4.47;;;17.70;66.20;;;;;;5033430;28;20038;-78
2021/11/16 03:03:56;;;;;;;6.70;4.53;;;17.70;66.20;;;;;;5027171;28;20128;-78
2021/11/16 03:06:21;;;;;;;6.03;4.47;;;17.70;66.20;;;;;;5035668;28;20039;-78
2021/11/16 03:08:47;;;;;;;6.60;4.40;;;17.70;66.10;;;;;;5048384;28;20033;-78
2021/11/16 03:11:15;;;;;;;5.78;4.10;;;17.70;66.20;;;;;;5047791;28;20392;-78
2021/11/16 03:13:42;;;;;;;6.55;4.28;;;17.70;66.10;;;;;;5034883;28;20025;-78
2021/11/16 03:16:15;;;;;;;7.22;4.88;;;17.70;66.10;;;;;;5029188;28;20073;-77
2021/11/16 03:18:45;;;;;;;6.68;4.68;;;17.70;66.10;;;;;;5027908;28;20034;-77
2021/11/16 03:21:12;;;;;;;6.45;4.55;;;17.70;66.10;;;;;;5029304;28;20033;-78
2021/11/16 03:23:43;;;;;;;6.47;4.43;;;17.70;66.00;;;;;;5028328;28;20110;-77
2021/11/16 03:26:10;;;;;;;6.13;4.40;;;17.70;66.00;;;;;;5030862;28;20389;-78
2021/11/16 03:28:38;;;;;;;6.38;4.40;;;17.70;66.00;;;;;;5041053;28;20392;-77
2021/11/16 03:31:19;;;;;;;5.85;4.50;;;17.70;66.00;;;;;;5046662;28;20032;-78
2021/11/16 03:33:45;;;;;;;7.40;4.72;;;17.70;66.00;;;;;;5046762;28;20025;-78
2021/11/16 03:36:11;;;;;;;5.35;4.28;;;17.70;65.90;;;;;;5041946;28;20033;-78
2021/11/16 03:38:39;;;;;;;5.75;4.20;;;17.70;66.00;;;;;;5027965;28;20017;-77
2021/11/16 03:41:05;;;;;;;5.93;4.20;;;17.70;65.90;;;;;;5031376;28;20699;-78
2021/11/16 03:43:33;;;;;;;4.88;3.35;;;17.80;65.90;;;;;;5044424;28;20045;-78
2021/11/16 03:45:59;;;;;;;5.13;3.70;;;17.80;65.90;;;;;;5027975;28;20041;-78
2021/11/16 03:48:26;;;;;;;6.38;4.95;;;17.80;65.90;;;;;;5027488;28;20037;-78
2021/11/16 03:50:54;;;;;;;6.93;4.40;;;17.80;65.80;;;;;;5030850;28;20052;-78
2021/11/16 03:53:19;;;;;;;6.75;4.75;;;17.80;65.80;;;;;;5045614;28;20033;-78
2021/11/16 03:55:46;;;;;;;5.82;4.35;;;17.80;65.80;;;;;;5030020;28;20037;-78
2021/11/16 03:58:16;;;;;;;5.85;3.95;;;17.80;65.80;;;;;;5028178;28;20030;-77
2021/11/16 04:00:49;;;;;;;5.72;3.92;;;17.80;65.70;;;;;;5027552;28;20069;-78
2021/11/16 04:03:16;;;;;;;7.57;4.97;;;17.80;65.70;;;;;;5036506;28;20028;-78
2021/11/16 04:05:42;;;;;;;6.80;4.25;;;17.80;65.70;;;;;;5036206;28;20025;-77
2021/11/16 04:08:09;;;;;;;5.90;4.22;;;17.80;65.60;;;;;;5048457;28;20081;-79
2021/11/16 04:10:35;;;;;;;5.30;3.78;;;17.80;65.60;;;;;;5044373;28;20028;-78
2021/11/16 04:13:01;;;;;;;6.13;4.20;;;17.80;65.50;;;;;;5050987;28;20153;-79
2021/11/16 04:15:29;;;;;;;6.00;4.20;;;17.80;65.60;;;;;;5046740;28;20040;-78
2021/11/16 04:17:57;;;;;;;6.40;4.40;;;17.80;65.50;;;;;;5051063;28;20043;-78
2021/11/16 04:20:44;;;;;;;6.20;4.50;;;17.80;65.50;;;;;;5050369;28;20021;-77
2021/11/16 04:23:12;;;;;;;6.45;4.35;;;17.80;65.50;;;;;;5030991;28;20040;-77
2021/11/16 04:25:40;;;;;;;6.20;4.20;;;17.80;66.20;;;;;;5030566;28;20139;-76
2021/11/16 04:28:07;;;;;;;5.82;4.20;;;17.80;65.50;;;;;;5030658;28;20389;-77
2021/11/16 04:30:33;;;;;;;4.97;3.80;;;17.80;65.50;;;;;;5041959;28;20036;-76
2021/11/16 04:32:59;;;;;;;5.68;3.90;;;17.80;65.40;;;;;;5049442;28;20021;-76
2021/11/16 04:35:26;;;;;;;7.10;3.90;;;17.80;65.40;;;;;;5048041;28;20430;-76
2021/11/16 04:37:54;;;;;;;5.97;4.20;;;17.80;65.40;;;;;;5032577;28;20022;-75
2021/11/16 04:40:26;;;;;;;6.78;4.60;;;17.80;65.40;;;;;;5030474;28;20036;-76
2021/11/16 04:42:55;;;;;;;5.00;3.75;;;17.80;65.30;;;;;;5040378;28;20065;-78
2021/11/16 04:45:23;;;;;;;6.95;4.47;;;17.90;65.40;;;;;;5036546;28;20028;-78
2021/11/16 04:48:15;;;;;;;7.47;4.55;;;17.80;65.40;;;;;;5033553;28;20496;-78
2021/11/16 05:04:18;;;;;;;6.20;4.57;;;17.80;65.90;;;;;;5036044;28;20078;-78
2021/11/16 05:06:44;;;;;;;5.80;4.07;;;17.90;65.30;;;;;;5038352;28;20029;-78
2021/11/16 05:09:13;;;;;;;5.00;4.00;;;17.90;65.20;;;;;;5050103;28;20029;-78
2021/11/16 05:11:39;;;;;;;5.00;4.05;;;17.90;65.30;;;;;;5034323;28;20432;-78
2021/11/16 05:14:04;;;;;;;6.30;4.18;;;17.90;65.20;;;;;;5038057;28;20029;-79
2021/11/16 05:16:30;;;;;;;6.15;4.20;;;17.90;65.10;;;;;;5031385;28;20113;-78
2021/11/16 05:18:56;;;;;;;6.93;4.75;;;17.90;65.10;;;;;;5047149;28;20037;-79
2021/11/16 05:21:21;;;;;;;5.22;3.83;;;17.90;65.10;;;;;;5044450;28;20033;-78
2021/11/16 05:23:59;;;;;;;6.90;4.13;;;17.90;65.10;;;;;;5030527;28;20065;-79
2021/11/16 05:26:27;;;;;;;6.35;4.65;;;17.90;65.10;;;;;;5028262;28;20033;-78
2021/11/16 05:28:54;;;;;;;5.00;3.90;;;17.90;65.10;;;;;;5030256;28;20116;-78
2021/11/16 05:31:21;;;;;;;7.63;4.22;;;17.80;65.10;;;;;;5029607;28;20026;-78
2021/11/16 05:33:48;;;;;;;6.72;4.28;;;17.90;65.20;;;;;;5030244;28;20534;-77
2021/11/16 05:36:18;;;;;;;6.53;3.97;;;17.90;65.20;;;;;;5031002;28;20021;-78
2021/11/16 05:38:47;;;;;;;6.07;4.00;;;17.90;65.00;;;;;;5032786;28;20025;-77
2021/11/16 05:41:13;;;;;;;7.30;4.70;;;17.90;65.10;;;;;;5045764;28;20396;-77
2021/11/16 05:43:42;;;;;;;4.93;3.25;;;17.90;65.10;;;;;;5029484;28;20351;-77
2021/11/16 05:46:08;;;;;;;6.00;4.07;;;17.90;65.90;;;;;;5043998;28;20032;-77
2021/11/16 05:48:41;;;;;;;5.10;3.58;;;17.90;65.10;;;;;;5049025;28;20032;-77
2021/11/16 05:51:08;;;;;;;6.10;4.30;;;17.90;65.00;;;;;;5041647;28;20489;-76
2021/11/16 05:53:36;;;;;;;5.97;3.80;;;17.90;65.00;;;;;;5032753;28;20021;-77
2021/11/16 05:56:02;;;;;;;5.78;3.72;;;17.90;65.00;;;;;;5029385;28;20489;-76
2021/11/16 05:58:28;;;;;;;7.68;4.32;;;17.90;65.00;;;;;;5040771;28;20033;-78
2021/11/16 06:00:54;;;;;;;6.38;4.45;;;17.90;64.90;;;;;;5047517;28;20037;-76
2021/11/16 06:03:20;;;;;;;6.00;4.03;;;18.00;64.90;;;;;;5048082;28;20013;-77
2021/11/16 06:05:46;;;;;;;5.50;3.67;;;17.90;64.80;;;;;;5038077;28;20033;-76
2021/11/16 06:08:22;;;;;;;7.15;4.18;;;17.90;64.80;;;;;;5044500;28;20031;-75
2021/11/16 06:10:49;;;;;;;5.85;3.78;;;18.00;64.80;;;;;;5047615;28;20120;-76
2021/11/16 06:13:14;;;;;;;6.63;4.10;;;18.00;64.80;;;;;;5041679;28;20024;-75
2021/11/16 06:15:40;;;;;;;7.03;4.47;;;18.00;64.80;;;;;;5043329;28;20029;-75
2021/11/16 06:18:06;;;;;;;4.82;3.45;;;18.00;64.80;;;;;;5048397;28;20489;-75
2021/11/16 06:20:32;;;;;;;7.50;4.40;;;18.00;64.90;;;;;;5048823;28;20416;-76
2021/11/16 06:22:58;;;;;;;5.00;3.88;;;18.00;64.90;;;;;;5048346;28;20041;-76
2021/11/16 06:25:24;;;;;;;6.10;4.07;;;18.00;64.90;;;;;;5047540;28;20025;-75
2021/11/16 06:27:50;;;;;;;6.30;4.35;;;18.00;64.90;;;;;;5048058;28;20032;-75
2021/11/16 06:30:16;;;;;;;5.53;3.47;;;18.10;65.00;;;;;;5049227;28;20519;-75
2021/11/16 06:32:43;;;;;;;5.38;3.92;;;18.10;64.80;;;;;;5048741;28;20112;-75
2021/11/16 06:35:16;;;;;;;5.05;3.90;;;18.10;64.80;;;;;;5048718;28;20025;-76
2021/11/16 06:37:43;;;;;;;6.55;3.55;;;18.10;64.90;;;;;;5047811;28;20077;-76
2021/11/16 06:40:09;;;;;;;5.13;3.75;;;18.10;65.10;;;;;;5048716;28;20545;-76
2021/11/16 06:42:36;;;;;;;7.72;4.15;;;18.10;65.00;;;;;;5048423;28;20040;-77
2021/11/16 06:45:02;;;;;;;5.75;4.00;;;18.10;65.00;;;;;;5048644;28;20025;-78
2021/11/16 06:47:28;;;;;;;8.57;4.60;;;18.10;65.00;;;;;;5047929;28;20140;-78
2021/11/16 06:49:54;;;;;;;6.85;4.15;;;18.20;65.10;;;;;;5047585;28;20104;-77
2021/11/16 06:52:20;;;;;;;8.85;4.38;;;18.20;65.20;;;;;;5041054;28;20029;-76
2021/11/16 06:54:46;;;;;;;8.75;4.13;;;18.20;65.40;;;;;;5044907;28;20025;-75
2021/11/16 06:57:12;;;;;;;6.70;3.92;;;18.30;65.60;;;;;;5028772;28;20080;-76
2021/11/16 06:59:39;;;;;;;7.03;4.43;;;18.30;65.60;;;;;;5028370;28;20017;-76
2021/11/16 07:02:05;;;;;;;8.60;5.78;;;18.30;65.80;;;;;;5028399;28;20038;-75
2021/11/16 07:04:37;;;;;;;8.15;5.60;;;18.40;65.90;;;;;;5028144;28;20049;-76
2021/11/16 07:07:03;;;;;;;9.00;5.18;;;18.40;65.70;;;;;;5036088;28;20017;-75
2021/11/16 07:09:35;;;;;;;9.90;5.93;;;18.40;65.80;;;;;;5048334;28;20036;-77
2021/11/16 07:12:03;;;;;;;13.00;6.38;;;18.40;65.90;;;;;;5048292;28;20108;-76
2021/11/16 07:14:37;;;;;;;8.88;4.75;;;18.50;66.20;;;;;;5048132;28;20529;-78
2021/11/16 07:17:05;;;;;;;11.15;5.88;;;18.50;66.10;;;;;;5048110;28;20021;-77
2021/11/16 07:19:35;;;;;;;9.40;5.30;;;18.50;66.10;;;;;;5045245;28;20066;-77
2021/11/16 07:22:05;;;;;;;9.13;5.57;;;18.50;66.00;;;;;;5028337;28;20079;-79
2021/11/16 07:24:32;;;;;;;8.55;5.22;;;18.50;65.90;;;;;;5038276;28;20401;-77
2021/11/16 07:27:07;;;;;;;8.85;5.28;;;18.50;66.00;;;;;;5048072;28;20492;-77
2021/11/16 07:29:36;;;;;;;;;;;18.40;65.90;;;;;;5048161;28;20386;-78
2021/11/16 07:32:03;;;;;;;8.02;5.70;;;18.40;65.90;;;;;;5047631;28;19908;-78
2021/11/16 07:34:31;;;;;;;9.25;5.82;;;18.40;65.90;;;;;;5047815;28;20014;-78
2021/11/16 07:37:03;;;;;;;8.73;5.32;;;18.40;65.90;;;;;;5049507;28;20053;-79
2021/11/16 07:39:31;;;;;;;7.90;5.18;;;18.40;66.00;;;;;;5051414;28;20013;-79
2021/11/16 07:42:05;;;;;;;8.75;5.97;;;18.40;65.90;;;;;;5051543;28;20102;-79
2021/11/16 07:44:31;;;;;;;9.30;5.00;;;18.40;65.80;;;;;;5051332;28;20504;-79
2021/11/16 07:46:57;;;;;;;8.02;5.22;;;18.30;65.80;;;;;;5051428;28;20029;-76
2021/11/16 07:49:23;;;;;;;8.10;5.28;;;18.30;65.80;;;;;;5051095;28;20028;-78
2021/11/16 07:51:51;;;;;;;8.20;5.53;;;18.30;65.80;;;;;;5051550;28;20047;-79
2021/11/16 07:54:24;;;;;;;9.25;4.95;;;18.30;65.80;;;;;;5051380;28;20029;-78
2021/11/16 07:56:51;;;;;;;7.25;4.68;;;18.30;65.80;;;;;;5051531;28;20029;-79
2021/11/16 07:59:21;;;;;;;7.68;5.07;;;18.20;65.80;;;;;;5051263;28;20029;-77
2021/11/16 08:04:26;;;;;;;7.07;4.60;;;18.20;65.80;;;;;;5051209;28;20043;-79
2021/11/16 08:09:40;;;;;;;7.97;5.03;;;18.20;65.50;;;;;;5051181;28;20029;-78
2021/11/16 08:12:11;;;;;;;8.38;4.93;;;18.20;65.50;;;;;;5051191;28;20025;-79
2021/11/16 08:14:37;;;;;;;6.53;4.72;;;18.10;65.30;;;;;;5050912;28;20021;-78
2021/11/16 08:17:06;;;;;;;7.28;4.97;;;18.10;65.30;;;;;;5050932;28;20100;-79
2021/11/16 08:19:37;;;;;;;7.05;5.22;;;18.10;65.30;;;;;;5050859;28;20499;-78
2021/11/16 08:22:07;;;;;;;8.32;4.97;;;18.10;65.30;;;;;;5049547;28;20029;-77
2021/11/16 08:24:37;;;;;;;7.20;4.30;;;18.10;65.20;;;;;;5050674;28;20028;-78
2021/11/16 08:27:13;;;;;;;7.85;4.53;;;18.10;65.20;;;;;;5050726;28;20035;-78
2021/11/16 08:29:42;;;;;;;7.85;5.00;;;18.10;65.20;;;;;;5050681;28;20342;-79
2021/11/16 08:32:14;;;;;;;6.68;4.97;;;18.00;65.10;;;;;;5050852;28;20029;-77
2021/11/16 08:34:43;;;;;;;7.78;4.97;;;18.00;65.10;;;;;;5050241;28;20032;-79
2021/11/16 08:37:11;;;;;;;7.90;4.90;;;18.00;65.10;;;;;;5050752;28;20021;-78
2021/11/16 08:39:39;;;;;;;6.95;4.78;;;18.00;65.10;;;;;;5050433;28;20025;-78
2021/11/16 08:42:09;;;;;;;6.75;4.65;;;18.00;65.00;;;;;;5050376;28;20033;-78
2021/11/16 08:44:47;;;;;;;7.07;4.75;;;18.00;65.00;;;;;;5050414;28;20544;-78
2021/11/16 08:47:13;;;;;;;8.02;4.82;;;18.00;65.00;;;;;;5049941;28;20033;-78
2021/11/16 08:49:41;;;;;;;6.63;4.28;;;17.90;64.90;;;;;;5050330;28;20338;-78
2021/11/16 08:52:18;;;;;;;8.55;4.78;;;17.90;64.90;;;;;;5050557;28;20032;-79
2021/11/16 08:54:55;;;;;;;6.90;4.60;;;17.90;65.00;;;;;;5050607;28;20024;-79
2021/11/16 08:57:22;;;;;;;7.10;4.78;;;17.90;64.90;;;;;;5049818;28;20538;-78
2021/11/16 08:59:48;;;;;;;6.22;4.78;;;17.90;64.90;;;;;;5050302;28;20029;-79
2021/11/16 09:02:17;;;;;;;6.35;4.22;;;17.90;64.90;;;;;;5050523;28;20073;-79
2021/11/16 09:04:43;;;;;;;8.20;5.32;;;17.90;64.90;;;;;;5049964;28;20025;-78
2021/11/16 09:07:27;;;;;;;11.48;5.25;;;17.90;64.90;;;;;;5050310;28;20149;-79
2021/11/16 09:10:06;;;;;;;9.23;4.80;;;17.80;64.80;;;;;;5050105;28;20024;-78
2021/11/16 09:12:45;;;;;;;8.05;4.88;;;17.80;64.90;;;;;;5048704;28;20033;-79
2021/11/16 09:15:18;;;;;;;7.70;5.30;;;17.80;64.80;;;;;;5049998;28;20073;-79
2021/11/16 09:17:44;;;;;;;6.55;4.68;;;17.80;64.80;;;;;;5050209;28;20029;-78
2021/11/16 09:20:19;;;;;;;7.95;5.03;;;17.80;64.70;;;;;;5049743;28;20029;-78
2021/11/16 09:22:44;;;;;;;7.68;4.82;;;17.80;64.70;;;;;;5050522;28;20029;-77
2021/11/16 09:25:29;;;;;;;6.47;4.93;;;17.80;65.50;;;;;;5049981;28;20031;-79
2021/11/16 09:28:02;;;;;;;7.65;5.15;;;17.80;64.70;;;;;;5050191;28;20062;-79
2021/11/16 09:30:40;;;;;;;6.75;5.07;;;17.80;64.70;;;;;;5049856;28;20025;-76
2021/11/16 09:33:11;;;;;;;6.35;4.63;;;17.80;64.70;;;;;;5049622;28;20039;-79
2021/11/16 09:35:52;;;;;;;7.03;5.13;;;17.70;64.60;;;;;;5049554;28;20025;-78
2021/11/16 09:38:40;;;;;;;9.93;5.28;;;17.80;64.60;;;;;;5050097;28;20039;-79
2021/11/16 09:41:06;;;;;;;7.85;5.78;;;17.70;64.60;;;;;;5049355;28;20618;-78
2021/11/16 09:43:32;;;;;;;9.38;5.47;;;17.70;64.60;;;;;;5049359;28;20104;-76
2021/11/16 09:46:04;;;;;;;8.30;5.80;;;17.70;64.50;;;;;;5049482;28;20124;-76
2021/11/16 09:48:32;;;;;;;7.95;5.97;;;17.70;64.50;;;;;;5049217;28;20382;-75
2021/11/16 09:50:58;;;;;;;8.63;5.35;;;17.70;64.50;;;;;;5049625;28;20039;-78
2021/11/16 09:53:23;;;;;;;8.68;5.82;;;17.70;64.50;;;;;;5049069;28;20027;-75
2021/11/16 09:55:50;;;;;;;8.32;6.07;;;17.70;64.50;;;;;;5049471;28;20108;-78
2021/11/16 09:58:23;;;;;;;8.65;6.10;;;17.70;64.50;;;;;;5049741;28;20025;-77
2021/11/16 10:00:49;;;;;;;8.95;5.50;;;17.70;64.50;;;;;;5048613;28;20373;-76
2021/11/16 10:03:17;;;;;;;10.18;6.40;;;17.70;64.40;;;;;;5049734;28;20031;-78
2021/11/16 10:05:55;;;;;;;9.73;6.55;;;17.70;64.40;;;;;;5048975;28;20018;-77
2021/11/16 10:08:26;;;;;;;8.48;6.03;;;17.70;64.50;;;;;;5049050;28;20028;-76
2021/11/16 10:10:55;;;;;;;10.70;7.10;;;17.70;64.40;;;;;;5049515;28;20481;-78
2021/11/16 10:13:24;;;;;;;10.05;6.68;;;17.70;64.40;;;;;;5048978;28;20029;-78
2021/11/16 10:15:53;;;;;;;9.10;6.53;;;17.60;64.40;;;;;;5049260;28;20137;-77
2021/11/16 10:18:21;;;;;;;9.23;6.47;;;17.60;64.30;;;;;;5049045;28;20496;-79
2021/11/16 10:20:47;;;;;;;9.38;6.00;;;17.60;64.30;;;;;;5049238;28;20120;-78
2021/11/16 10:23:17;;;;;;;9.65;6.72;;;17.60;64.20;;;;;;5049042;28;20020;-78
2021/11/16 10:25:51;;;;;;;8.15;5.78;;;17.60;64.20;;;;;;5048574;28;20069;-78
2021/11/16 10:28:18;;;;;;;10.55;7.22;;;17.60;64.20;;;;;;5049325;28;20064;-79
2021/11/16 10:30:45;;;;;;;8.95;6.38;;;17.60;64.20;;;;;;5048746;28;20040;-78
2021/11/16 10:33:24;;;;;;;10.02;6.38;;;17.60;64.20;;;;;;5048953;28;20024;-78
2021/11/16 10:35:54;;;;;;;9.38;6.82;;;17.60;64.20;;;;;;5048952;28;20052;-78
2021/11/16 10:38:26;;;;;;;8.98;6.20;;;17.60;64.20;;;;;;5048719;28;20053;-79
2021/11/16 10:40:57;;;;;;;10.30;6.93;;;17.60;64.20;;;;;;5048671;28;20029;-78
2021/11/16 10:43:30;;;;;;;11.70;6.97;;;17.60;64.20;;;;;;5048599;28;20052;-78
2021/11/16 10:46:02;;;;;;;9.15;6.80;;;17.50;64.10;;;;;;5048693;28;20032;-78
2021/11/16 10:48:29;;;;;;;10.55;6.20;;;17.60;64.20;;;;;;5048476;28;20563;-77
2021/11/16 10:50:54;;;;;;;10.07;7.10;;;17.50;64.10;;;;;;5048552;28;20029;-77
2021/11/16 10:53:23;;;;;;;10.13;6.57;;;17.50;64.10;;;;;;5048349;28;20032;-78
2021/11/16 10:55:50;;;;;;;9.45;6.53;;;17.50;64.10;;;;;;5048618;28;20021;-78
2021/11/16 10:58:21;;;;;;;8.77;6.35;;;17.50;64.10;;;;;;5048801;28;20025;-78
2021/11/16 11:01:01;;;;;;;10.30;6.22;;;17.50;64.10;;;;;;5047487;28;20396;-78
2021/11/16 11:03:33;;;;;;;9.30;6.47;;;17.50;64.10;;;;;;5048232;28;20071;-77
2021/11/16 11:06:09;;;;;;;9.48;6.13;;;17.50;64.10;;;;;;5047116;28;20392;-79
2021/11/16 11:08:37;;;;;;;;;;;17.50;64.10;;;;;;5048460;28;20069;-78
2021/11/16 11:11:25;;;;;;;9.02;6.18;;;17.50;64.10;;;;;;5048262;28;19959;-78
2021/11/16 11:13:57;;;;;;;10.02;6.90;;;17.50;64.10;;;;;;5048164;28;20041;-78
2021/11/16 11:16:24;;;;;;;8.60;6.28;;;17.50;64.10;;;;;;5047955;28;20036;-77
2021/11/16 11:18:50;;;;;;;8.63;6.40;;;17.50;64.10;;;;;;5048084;28;20480;-76
2021/11/16 11:21:24;;;;;;;8.38;5.60;;;17.50;64.10;;;;;;5048177;28;20116;-77
2021/11/16 11:23:54;;;;;;;10.00;6.10;;;17.50;64.10;;;;;;5048241;28;20013;-77
2021/11/16 11:26:35;;;;;;;8.30;6.15;;;17.50;64.10;;;;;;5048039;28;20050;-77
2021/11/16 11:29:16;;;;;;;10.57;7.22;;;17.50;64.10;;;;;;5048153;28;20400;-75
2021/11/16 11:31:45;;;;;;;9.80;6.45;;;17.50;64.10;;;;;;5047615;28;20053;-76
2021/11/16 11:34:12;;;;;;;8.27;6.03;;;17.50;64.10;;;;;;5048166;28;20438;-77
2021/11/16 11:36:38;;;;;;;9.30;6.00;;;17.50;64.10;;;;;;5047962;28;20052;-76
2021/11/16 11:39:16;;;;;;;9.13;6.15;;;17.50;64.10;;;;;;5047939;28;20027;-76
2021/11/16 11:41:50;;;;;;;9.50;6.75;;;17.50;64.10;;;;;;5047539;28;20469;-74
2021/11/16 11:44:17;;;;;;;10.82;6.68;;;17.50;64.10;;;;;;5048202;28;20108;-75
2021/11/16 11:46:50;;;;;;;9.57;5.93;;;17.40;64.00;;;;;;5047619;28;20048;-75
2021/11/16 11:49:16;;;;;;;8.60;6.10;;;17.50;64.10;;;;;;5048126;28;20025;-75
2021/11/16 11:51:43;;;;;;;10.32;6.90;;;17.50;64.10;;;;;;5047722;28;20017;-75
2021/11/16 11:54:09;;;;;;;10.23;6.53;;;17.40;64.00;;;;;;5047911;28;20025;-76
2021/11/16 11:56:35;;;;;;;9.60;6.28;;;17.40;64.00;;;;;;5047361;28;20025;-75
2021/11/16 11:59:02;;;;;;;8.48;6.47;;;17.40;64.00;;;;;;5047698;28;20073;-75
2021/11/16 12:01:29;;;;;;;8.82;5.75;;;17.40;64.00;;;;;;5047587;28;20516;-77
2021/11/16 12:03:56;;;;;;;9.23;5.88;;;17.40;64.10;;;;;;5047721;28;20025;-78
2021/11/16 12:06:26;;;;;;;8.38;5.70;;;17.40;64.00;;;;;;5047305;28;20489;-78
2021/11/16 12:08:55;;;;;;;8.23;5.75;;;17.40;64.00;;;;;;5047650;28;20100;-78
2021/11/16 12:11:21;;;;;;;7.88;5.63;;;17.40;64.00;;;;;;5047065;28;20497;-78
2021/11/16 12:13:48;;;;;;;9.55;6.20;;;17.40;64.00;;;;;;5048062;28;20029;-77
2021/11/16 12:16:25;;;;;;;9.73;6.25;;;17.40;64.00;;;;;;5048004;28;20103;-78
2021/11/16 12:19:03;;;;;;;7.72;5.88;;;17.40;63.90;;;;;;5047657;28;20021;-78
2021/11/16 12:21:36;;;;;;;8.00;6.10;;;17.40;64.00;;;;;;5047305;28;20494;-78
2021/11/16 12:24:27;;;;;;;9.48;6.30;;;17.40;63.90;;;;;;5050159;28;20104;-78
2021/11/16 12:26:53;;;;;;;9.52;6.13;;;17.40;64.00;;;;;;5053413;28;20037;-78
2021/11/16 12:29:30;;;;;;;8.95;6.28;;;17.40;64.00;;;;;;5050863;28;20024;-78
2021/11/16 12:32:13;;;;;;;8.90;6.25;;;17.40;64.70;;;;;;5050644;28;20032;-79
2021/11/16 12:34:47;;;;;;;10.70;6.68;;;17.40;64.00;;;;;;5050482;28;20025;-79
2021/11/16 12:37:47;;;;;;;8.02;6.13;;;17.40;64.00;;;;;;5050702;28;20489;-78
2021/11/16 12:40:20;;;;;;;9.95;6.32;;;17.40;63.90;;;;;;5050535;28;20508;-78
2021/11/16 12:43:18;;;;;;;10.45;7.03;;;17.40;63.90;;;;;;5049777;28;20048;-78
2021/11/16 12:45:49;;;;;;;9.20;6.00;;;17.40;63.90;;;;;;5050825;28;20025;-77
2021/11/16 12:48:28;;;;;;;8.38;5.50;;;17.40;63.80;;;;;;5049850;28;20040;-79
2021/11/16 12:51:15;;;;;;;9.18;6.05;;;17.40;63.80;;;;;;5050462;28;20017;-78
2021/11/16 12:53:59;;;;;;;8.23;5.45;;;17.50;63.90;;;;;;5050151;28;20029;-77
2021/11/16 12:56:46;;;;;;;9.43;6.85;;;17.40;63.80;;;;;;5050274;28;20487;-78
2021/11/16 12:59:19;;;;;;;;;;;17.50;63.90;;;;;;5050785;28;20029;-75
2021/11/16 13:01:47;;;;;;;9.10;5.85;;;17.40;63.80;;;;;;5050712;28;20363;-77
2021/11/16 13:04:15;;;;;;;7.65;5.75;;;17.50;63.90;;;;;;5050672;28;20096;-77
2021/11/16 13:07:03;;;;;;;8.25;6.25;;;17.50;63.90;;;;;;5050184;28;20033;-75
2021/11/16 13:09:47;;;;;;;8.02;6.18;;;17.50;63.90;;;;;;5049642;28;20369;-75
2021/11/16 13:12:43;;;;;;;10.10;6.85;;;17.40;63.80;;;;;;5050313;28;20017;-75
2021/11/16 13:15:35;;;;;;;9.48;6.13;;;17.40;63.80;;;;;;5050154;28;20029;-75
2021/11/16 13:18:08;;;;;;;9.05;6.55;;;17.50;63.80;;;;;;5049849;28;20025;-76